Time;durP1;ratioP1;P1;durP2;ratioP2;P2;SDS_P1;SDS_P2;PMS_P1;PMS_P2;Temp;Humidity;BMP_temperature;BMP_pressure;BME280_temperature;BME280_humidity;BME280_pressure;Samples;Min_cycle;Max_cycle;Signal;HPM_P1;HPM_P2
2022/10/28 00:01:21;;;;;;;7.13;1.88;;;12.60;99.90;;;;;;4857836;29;20093;-54
2022/10/28 00:03:54;;;;;;;6.28;1.55;;;12.50;99.90;;;;;;4859002;29;20080;-56
2022/10/28 00:06:24;;;;;;;5.35;1.50;;;12.50;99.90;;;;;;4855699;29;20500;-52
2022/10/28 00:08:52;;;;;;;4.97;1.52;;;12.50;99.90;;;;;;4859480;29;20072;-56
2022/10/28 00:11:25;;;;;;;4.40;1.45;;;12.50;99.90;;;;;;4858781;29;20049;-56
2022/10/28 00:13:53;;;;;;;3.30;1.52;;;12.50;99.90;;;;;;4863933;29;20480;-57
2022/10/28 00:16:23;;;;;;;5.38;1.55;;;12.50;99.90;;;;;;4859004;29;20061;-55
2022/10/28 00:18:52;;;;;;;7.65;1.63;;;12.60;99.90;;;;;;4858316;29;20428;-55
2022/10/28 00:21:22;;;;;;;6.43;1.33;;;12.50;99.90;;;;;;4861157;29;20055;-57
2022/10/28 00:23:49;;;;;;;8.27;1.25;;;12.50;99.90;;;;;;4857471;29;20081;-57
2022/10/28 00:26:24;;;;;;;6.35;1.60;;;12.50;99.90;;;;;;4855623;29;20042;-57
2022/10/28 00:28:56;;;;;;;9.65;2.25;;;12.60;99.90;;;;;;4859931;29;20084;-56
2022/10/28 00:31:25;;;;;;;3.38;1.42;;;12.60;99.90;;;;;;4859944;29;20496;-55
2022/10/28 00:33:52;;;;;;;7.38;1.83;;;12.60;99.90;;;;;;4861358;29;20045;-56
2022/10/28 00:36:19;;;;;;;6.55;1.83;;;12.60;99.90;;;;;;4860172;29;20049;-56
2022/10/28 00:38:47;;;;;;;9.02;1.92;;;12.60;99.90;;;;;;4860177;29;20488;-56
2022/10/28 00:41:24;;;;;;;9.38;1.55;;;12.50;99.90;;;;;;4857252;29;20056;-57
2022/10/28 00:43:56;;;;;;;3.30;1.45;;;12.50;99.90;;;;;;4858916;29;20083;-57
2022/10/28 00:46:30;;;;;;;5.35;1.48;;;12.50;99.90;;;;;;4859156;29;20399;-53
2022/10/28 00:49:17;;;;;;;3.28;1.50;;;12.50;99.90;;;;;;4861218;29;20492;-54
2022/10/28 00:51:47;;;;;;;5.80;1.75;;;12.50;99.90;;;;;;4856180;29;20632;-56
2022/10/28 00:54:15;;;;;;;8.60;1.50;;;12.50;99.90;;;;;;4857476;29;20140;-55
2022/10/28 00:56:48;;;;;;;5.53;1.83;;;12.50;99.90;;;;;;4854723;29;20053;-56
2022/10/28 00:59:23;;;;;;;2.08;1.20;;;12.50;99.90;;;;;;4859755;29;20072;-56
2022/10/28 01:01:49;;;;;;;6.22;1.70;;;12.40;99.90;;;;;;4858240;29;20065;-54
2022/10/28 01:04:16;;;;;;;;;;;12.40;99.90;;;;;;4860628;29;20127;-53
2022/10/28 01:06:45;;;;;;;9.52;1.10;;;12.40;99.90;;;;;;4858095;29;20419;-56
2022/10/28 01:09:12;;;;;;;4.47;1.35;;;12.40;99.90;;;;;;4856189;29;20086;-57
2022/10/28 01:11:59;;;;;;;9.43;1.48;;;12.40;99.90;;;;;;4835725;29;20133;-55
2022/10/28 01:14:38;;;;;;;8.13;1.85;;;12.50;99.90;;;;;;4856969;29;20059;-55
2022/10/28 01:17:55;;;;;;;13.10;1.50;;;12.40;99.90;;;;;;4860211;29;20128;-55
2022/10/28 01:20:46;;;;;;;6.47;1.52;;;12.50;99.90;;;;;;4801048;29;20063;-55
2022/10/28 01:23:40;;;;;;;8.50;1.40;;;12.50;99.90;;;;;;4800212;29;20362;-57
2022/10/28 01:26:22;;;;;;;8.73;1.50;;;12.50;99.90;;;;;;4831122;29;20066;-53
2022/10/28 01:28:49;;;;;;;9.93;1.65;;;12.50;99.90;;;;;;4857239;29;20067;-55
2022/10/28 01:31:34;;;;;;;8.30;2.22;;;12.50;99.90;;;;;;4856465;29;20511;-53
2022/10/28 01:34:07;;;;;;;14.50;1.95;;;12.60;99.90;;;;;;4853730;29;20049;-53
2022/10/28 01:36:46;;;;;;;4.10;1.52;;;12.60;99.90;;;;;;4861416;29;20486;-56
2022/10/28 01:39:33;;;;;;;4.53;1.48;;;12.60;99.90;;;;;;4858678;29;20042;-57
2022/10/28 01:42:15;;;;;;;6.60;1.33;;;12.60;99.90;;;;;;4858547;29;20124;-54
2022/10/28 01:45:11;;;;;;;7.43;1.45;;;12.60;99.90;;;;;;4852447;29;20132;-55
2022/10/28 01:47:46;;;;;;;7.10;1.92;;;12.60;99.90;;;;;;4846264;29;20307;-55
2022/10/28 01:50:22;;;;;;;7.50;1.45;;;12.60;99.90;;;;;;4855503;29;20056;-55
2022/10/28 01:52:52;;;;;;;4.97;1.52;;;12.60;99.90;;;;;;4859117;29;20309;-55
2022/10/28 01:55:25;;;;;;;4.32;1.40;;;12.70;99.90;;;;;;4856646;29;20061;-57
2022/10/28 01:57:55;;;;;;;13.90;1.98;;;12.60;99.90;;;;;;4857650;29;20044;-55
2022/10/28 02:00:22;;;;;;;8.63;1.90;;;12.60;99.90;;;;;;4855486;29;20057;-55
2022/10/28 02:02:50;;;;;;;11.55;1.58;;;12.60;99.90;;;;;;4856502;29;20617;-55
2022/10/28 02:05:41;;;;;;;10.60;2.25;;;12.60;99.90;;;;;;4854108;29;20088;-56
2022/10/28 02:08:16;;;;;;;6.30;1.10;;;12.60;99.90;;;;;;4859033;29;20152;-55
2022/10/28 02:11:25;;;;;;;3.00;1.00;;;12.60;99.90;;;;;;4855614;29;20139;-57
2022/10/28 02:14:30;;;;;;;12.47;1.53;;;12.60;99.90;;;;;;4856629;29;20041;-55
2022/10/28 02:17:11;;;;;;;2.17;1.00;;;12.60;99.90;;;;;;4800788;29;20057;-54
2022/10/28 02:19:50;;;;;;;14.57;1.58;;;12.60;99.90;;;;;;4850802;29;20061;-53
2022/10/28 02:22:29;;;;;;;6.75;1.33;;;12.60;99.90;;;;;;4856702;29;20166;-53
2022/10/28 02:25:01;;;;;;;14.27;2.65;;;12.60;99.90;;;;;;4854136;29;20097;-55
2022/10/28 02:27:37;;;;;;;12.45;1.85;;;12.50;99.90;;;;;;4859010;29;20068;-52
2022/10/28 02:30:19;;;;;;;3.25;2.17;;;12.50;99.90;;;;;;4860738;29;20067;-56
2022/10/28 02:32:51;;;;;;;7.32;1.48;;;12.50;99.90;;;;;;4855742;29;20044;-53
2022/10/28 02:35:28;;;;;;;1.38;0.80;;;12.50;99.90;;;;;;4861667;29;20057;-56
2022/10/28 02:37:56;;;;;;;2.83;1.53;;;12.50;99.90;;;;;;4857234;29;20076;-56
2022/10/28 02:40:26;;;;;;;5.88;1.67;;;12.40;99.90;;;;;;4856105;29;20824;-54
2022/10/28 02:42:58;;;;;;;10.02;1.83;;;12.40;99.90;;;;;;4857061;29;20045;-57
2022/10/28 02:45:31;;;;;;;6.03;1.75;;;12.40;99.90;;;;;;4856004;29;20057;-56
2022/10/28 02:48:04;;;;;;;3.53;1.42;;;12.30;99.90;;;;;;4856914;29;20536;-54
2022/10/28 02:50:36;;;;;;;6.57;1.48;;;12.30;99.90;;;;;;4858409;29;20379;-54
2022/10/28 02:53:14;;;;;;;8.88;1.73;;;12.30;99.90;;;;;;4864122;29;20589;-58
2022/10/28 02:55:43;;;;;;;8.00;2.17;;;12.20;99.90;;;;;;4859135;29;20135;-56
2022/10/28 02:58:10;;;;;;;8.23;1.20;;;12.20;99.90;;;;;;4857953;29;20051;-55
2022/10/28 03:00:42;;;;;;;11.18;1.52;;;12.20;99.90;;;;;;4858434;29;20754;-55
2022/10/28 03:03:09;;;;;;;5.47;1.60;;;12.30;99.90;;;;;;4862215;29;20476;-54
2022/10/28 03:05:35;;;;;;;4.22;1.17;;;12.30;99.90;;;;;;4858370;29;20062;-55
2022/10/28 03:08:02;;;;;;;7.25;1.48;;;12.30;99.90;;;;;;4858787;29;20052;-54
2022/10/28 03:10:29;;;;;;;7.22;2.17;;;12.30;99.90;;;;;;4860227;29;20059;-56
2022/10/28 03:12:56;;;;;;;15.45;1.20;;;12.40;99.90;;;;;;4857328;29;20049;-56
2022/10/28 03:15:23;;;;;;;2.95;1.42;;;12.40;99.90;;;;;;4862665;29;20042;-56
2022/10/28 03:17:49;;;;;;;6.13;1.90;;;12.40;99.90;;;;;;4862322;29;20056;-53
2022/10/28 03:20:16;;;;;;;7.20;1.40;;;12.40;99.90;;;;;;4860848;29;20052;-56
2022/10/28 03:22:43;;;;;;;10.60;2.70;;;12.40;99.90;;;;;;4860569;29;20041;-56
2022/10/28 03:25:10;;;;;;;;;;;12.40;99.90;;;;;;4859292;29;20495;-56
2022/10/28 03:27:40;;;;;;;2.80;0.90;;;12.40;99.90;;;;;;4860370;29;19934;-54
2022/10/28 03:30:07;;;;;;;2.70;1.25;;;12.30;99.90;;;;;;4862006;29;20256;-54
2022/10/28 03:32:34;;;;;;;7.43;1.50;;;12.30;99.90;;;;;;4862376;29;20045;-57
2022/10/28 03:35:00;;;;;;;4.45;1.08;;;12.20;99.90;;;;;;4861544;29;20049;-54
2022/10/28 03:37:27;;;;;;;10.60;1.55;;;12.20;99.90;;;;;;4859416;29;20069;-55
2022/10/28 03:39:54;;;;;;;7.80;1.65;;;12.20;99.90;;;;;;4862864;29;20040;-55
2022/10/28 03:42:20;;;;;;;15.40;1.55;;;12.20;99.90;;;;;;4859470;29;20579;-54
2022/10/28 03:44:47;;;;;;;15.90;1.55;;;12.20;99.90;;;;;;4862078;29;20055;-55
2022/10/28 03:47:14;;;;;;;3.80;1.55;;;12.10;99.90;;;;;;4857463;29;20440;-53
2022/10/28 03:49:40;;;;;;;4.57;1.30;;;12.10;99.90;;;;;;4857387;29;20507;-54
2022/10/28 03:52:07;;;;;;;6.28;1.58;;;12.10;99.90;;;;;;4859177;29;20143;-56
2022/10/28 03:54:33;;;;;;;5.85;1.98;;;12.10;99.90;;;;;;4857611;29;20084;-56
2022/10/28 03:57:00;;;;;;;;;;;12.10;99.90;;;;;;4859132;29;20440;-55
2022/10/28 03:59:27;;;;;;;9.73;1.85;;;12.00;99.90;;;;;;4863518;29;20449;-55
2022/10/28 04:01:53;;;;;;;12.05;1.40;;;12.00;99.90;;;;;;4859155;29;20056;-56
2022/10/28 04:04:20;;;;;;;8.40;1.85;;;12.00;99.90;;;;;;4863479;29;20129;-55
2022/10/28 04:06:47;;;;;;;3.67;1.60;;;12.00;99.90;;;;;;4863114;29;20078;-54
2022/10/28 04:09:14;;;;;;;7.78;2.35;;;11.90;99.90;;;;;;4855398;29;20053;-53
2022/10/28 04:11:40;;;;;;;5.18;1.42;;;11.90;99.90;;;;;;4857838;29;20080;-54
2022/10/28 04:14:07;;;;;;;4.53;1.25;;;11.80;99.90;;;;;;4863301;29;20427;-53
2022/10/28 04:16:34;;;;;;;6.97;1.50;;;11.80;99.90;;;;;;4858462;29;20049;-55
2022/10/28 04:19:00;;;;;;;10.73;1.85;;;11.70;99.90;;;;;;4860987;29;20145;-54
2022/10/28 04:21:27;;;;;;;;;;;11.60;99.90;;;;;;4860694;29;20486;-56
2022/10/28 04:23:54;;;;;;;4.47;1.33;;;11.60;99.90;;;;;;4860994;29;19935;-55
2022/10/28 04:26:20;;;;;;;12.25;1.40;;;11.60;99.90;;;;;;4864307;29;20056;-54
2022/10/28 04:28:47;;;;;;;10.48;2.17;;;11.60;99.90;;;;;;4857718;29;20052;-56
2022/10/28 04:31:14;;;;;;;5.38;1.50;;;11.60;99.90;;;;;;4857257;29;20056;-55
2022/10/28 04:33:40;;;;;;;;;;;11.60;99.90;;;;;;4862188;29;20059;-55
2022/10/28 04:36:07;;;;;;;10.95;2.03;;;11.60;99.90;;;;;;4861711;29;19934;-54
2022/10/28 04:38:34;;;;;;;6.32;2.20;;;11.60;99.90;;;;;;4862514;29;20044;-54
2022/10/28 04:41:01;;;;;;;6.95;2.58;;;11.60;99.90;;;;;;4862878;29;20045;-54
2022/10/28 04:43:27;;;;;;;7.85;1.70;;;11.60;99.90;;;;;;4862761;29;20052;-54
2022/10/28 04:45:54;;;;;;;4.53;2.15;;;11.60;99.90;;;;;;4858704;29;20434;-54
2022/10/28 04:48:21;;;;;;;6.72;1.65;;;11.70;99.90;;;;;;4855774;29;20452;-51
2022/10/28 04:50:47;;;;;;;17.83;1.63;;;11.70;99.90;;;;;;4857148;29;20057;-55
2022/10/28 04:53:14;;;;;;;;;;;11.70;99.90;;;;;;4861159;29;20049;-53
2022/10/28 04:55:40;;;;;;;13.25;1.50;;;11.80;99.90;;;;;;4859076;29;19927;-52
2022/10/28 04:58:08;;;;;;;5.28;1.40;;;11.80;99.90;;;;;;4854987;29;20511;-54
2022/10/28 05:00:35;;;;;;;17.33;2.20;;;11.80;99.90;;;;;;4862401;29;20116;-53
2022/10/28 05:03:02;;;;;;;;;;;11.80;99.90;;;;;;4857935;29;20105;-54
2022/10/28 05:05:29;;;;;;;8.15;1.50;;;11.90;99.90;;;;;;4855890;29;20288;-53
2022/10/28 05:07:56;;;;;;;9.80;2.05;;;12.00;99.90;;;;;;4858445;29;20514;-54
2022/10/28 05:10:23;;;;;;;7.43;1.67;;;12.00;99.90;;;;;;4862388;29;20135;-54
2022/10/28 05:12:50;;;;;;;6.90;2.10;;;12.00;99.90;;;;;;4857116;29;20473;-54
2022/10/28 05:15:16;;;;;;;4.20;0.85;;;12.10;99.90;;;;;;4859262;29;20052;-54
2022/10/28 05:17:45;;;;;;;8.25;2.15;;;12.10;99.90;;;;;;4856400;29;20499;-56
2022/10/28 05:20:14;;;;;;;6.95;2.20;;;12.10;99.90;;;;;;4860721;29;20041;-56
2022/10/28 05:22:46;;;;;;;5.85;1.63;;;12.20;99.90;;;;;;4860401;29;20060;-54
2022/10/28 05:25:13;;;;;;;7.30;1.40;;;12.30;99.90;;;;;;4861264;29;20049;-53
2022/10/28 05:27:39;;;;;;;7.90;1.52;;;12.20;99.90;;;;;;4856717;29;20071;-54
2022/10/28 05:30:07;;;;;;;7.68;1.85;;;12.30;99.90;;;;;;4859608;29;20071;-53
2022/10/28 05:32:34;;;;;;;2.97;1.35;;;12.20;99.90;;;;;;4857987;29;20151;-57
2022/10/28 05:35:01;;;;;;;6.63;1.88;;;12.20;99.90;;;;;;4856009;29;20347;-54
2022/10/28 05:37:27;;;;;;;;;;;12.20;99.90;;;;;;4856182;29;20046;-55
2022/10/28 05:39:54;;;;;;;4.13;2.08;;;12.20;99.90;;;;;;4857422;29;20508;-52
2022/10/28 05:42:21;;;;;;;2.30;1.33;;;12.30;99.90;;;;;;4853636;29;20516;-53
2022/10/28 05:44:47;;;;;;;;;;;12.30;99.90;;;;;;4859626;29;20051;-51
2022/10/28 05:47:14;;;;;;;8.52;1.80;;;12.40;99.90;;;;;;4855589;29;19934;-54
2022/10/28 05:49:41;;;;;;;10.65;2.03;;;12.40;99.90;;;;;;4852835;29;20056;-53
2022/10/28 05:52:07;;;;;;;9.93;2.40;;;12.40;99.90;;;;;;4858626;29;20072;-54
2022/10/28 05:54:34;;;;;;;5.97;1.60;;;12.40;99.90;;;;;;4854729;29;20064;-51
2022/10/28 05:57:01;;;;;;;8.77;1.95;;;12.40;99.90;;;;;;4859481;29;20041;-52
2022/10/28 05:59:28;;;;;;;13.95;1.75;;;12.40;99.90;;;;;;4859548;29;20564;-55
2022/10/28 06:01:54;;;;;;;;;;;12.40;99.90;;;;;;4854558;29;20185;-53
2022/10/28 06:04:21;;;;;;;12.02;2.45;;;12.40;99.90;;;;;;4861967;29;19927;-54
2022/10/28 06:06:48;;;;;;;8.63;1.70;;;12.50;99.90;;;;;;4858341;29;20076;-54
2022/10/28 06:09:15;;;;;;;3.28;1.55;;;12.50;99.90;;;;;;4855799;29;20131;-53
2022/10/28 06:11:41;;;;;;;8.77;1.83;;;12.50;99.90;;;;;;4860016;29;20044;-54
2022/10/28 06:14:08;;;;;;;;;;;12.50;99.90;;;;;;4855588;29;20600;-54
2022/10/28 06:16:35;;;;;;;7.50;1.67;;;12.40;99.90;;;;;;4858412;29;19928;-53
2022/10/28 06:19:01;;;;;;;6.50;1.75;;;12.40;99.90;;;;;;4858302;29;20053;-56
2022/10/28 06:21:28;;;;;;;;;;;12.40;99.90;;;;;;4856654;29;20046;-55
2022/10/28 06:23:55;;;;;;;6.10;2.03;;;12.40;99.90;;;;;;4856022;29;19927;-53
2022/10/28 06:26:21;;;;;;;6.85;3.15;;;12.40;99.90;;;;;;4851336;29;20368;-52
2022/10/28 06:28:48;;;;;;;3.72;1.80;;;12.40;99.90;;;;;;4853089;29;20063;-52
2022/10/28 06:31:15;;;;;;;;;;;12.40;99.90;;;;;;4852843;29;20109;-54
2022/10/28 06:33:41;;;;;;;8.20;2.17;;;12.30;99.90;;;;;;4851525;29;19944;-56
2022/10/28 06:36:08;;;;;;;3.13;1.50;;;12.30;99.90;;;;;;4857779;29;20047;-56
2022/10/28 06:38:35;;;;;;;6.95;2.35;;;12.30;99.90;;;;;;4856778;29;20048;-56
2022/10/28 06:41:02;;;;;;;9.10;3.08;;;12.30;99.90;;;;;;4851102;29;20052;-56
2022/10/28 06:43:28;;;;;;;9.00;2.45;;;12.40;99.90;;;;;;4855949;29;20092;-54
2022/10/28 06:45:56;;;;;;;;;;;12.50;99.90;;;;;;4855548;29;20056;-55
2022/10/28 06:48:23;;;;;;;16.92;2.22;;;12.60;99.90;;;;;;4856815;29;20362;-53
2022/10/28 06:50:50;;;;;;;12.20;2.92;;;12.70;99.90;;;;;;4859169;29;20053;-52
2022/10/28 06:53:17;;;;;;;6.57;2.15;;;12.70;99.90;;;;;;4856544;29;20689;-54
2022/10/28 06:55:51;;;;;;;9.10;1.90;;;12.80;99.90;;;;;;4857513;29;20045;-55
2022/10/28 06:58:18;;;;;;;6.07;2.25;;;12.90;99.90;;;;;;4859956;29;20052;-55
2022/10/28 07:00:44;;;;;;;5.88;2.08;;;13.00;99.90;;;;;;4857183;29;20435;-53
2022/10/28 07:03:11;;;;;;;8.75;3.00;;;13.10;99.90;;;;;;4854983;29;20064;-54
2022/10/28 07:05:38;;;;;;;;;;;13.20;99.90;;;;;;4855826;29;20452;-55
2022/10/28 07:08:05;;;;;;;6.78;2.15;;;13.30;99.90;;;;;;4854682;29;20092;-51
2022/10/28 07:10:32;;;;;;;;;;;13.40;99.90;;;;;;4854716;29;20056;-53
2022/10/28 07:12:58;;;;;;;5.32;2.30;;;13.50;99.90;;;;;;4856330;29;19927;-53
2022/10/28 07:15:25;;;;;;;10.00;2.60;;;13.60;99.90;;;;;;4858835;29;20060;-55
2022/10/28 07:17:56;;;;;;;3.95;1.98;;;13.60;99.90;;;;;;4853702;29;20519;-55
2022/10/28 07:20:26;;;;;;;7.85;2.25;;;13.70;99.90;;;;;;4856926;29;20546;-52
2022/10/28 07:23:00;;;;;;;10.10;2.47;;;13.70;99.90;;;;;;4856645;29;20045;-56
2022/10/28 07:25:29;;;;;;;8.02;2.45;;;13.70;99.90;;;;;;4858588;29;20104;-55
2022/10/28 07:27:57;;;;;;;5.60;2.17;;;13.70;99.90;;;;;;4856397;29;20247;-55
2022/10/28 07:30:24;;;;;;;9.90;2.10;;;13.70;99.90;;;;;;4861614;29;20055;-52
2022/10/28 07:32:51;;;;;;;8.75;2.25;;;13.70;99.90;;;;;;4857625;29;20610;-53
2022/10/28 07:35:19;;;;;;;5.68;2.50;;;13.60;99.90;;;;;;4858768;29;20523;-54
2022/10/28 07:37:45;;;;;;;12.10;2.90;;;13.50;99.90;;;;;;4856934;29;20033;-54
2022/10/28 07:40:12;;;;;;;;;;;13.50;99.90;;;;;;4860225;29;20053;-55
2022/10/28 07:42:39;;;;;;;6.93;2.17;;;13.40;99.90;;;;;;4862581;29;20322;-53
2022/10/28 07:45:06;;;;;;;2.65;1.63;;;13.40;99.90;;;;;;4859597;29;20546;-54
2022/10/28 07:47:33;;;;;;;7.72;2.00;;;13.40;99.90;;;;;;4856922;29;20053;-55
2022/10/28 07:49:59;;;;;;;10.10;2.70;;;13.40;99.90;;;;;;4863539;29;20060;-55
2022/10/28 07:52:26;;;;;;;6.88;2.53;;;13.40;99.90;;;;;;4856574;29;20060;-52
2022/10/28 07:54:53;;;;;;;6.50;2.10;;;13.40;99.90;;;;;;4855948;29;20413;-54
2022/10/28 07:57:20;;;;;;;8.13;2.30;;;13.50;99.90;;;;;;4864397;29;20199;-53
2022/10/28 07:59:47;;;;;;;8.23;2.50;;;13.50;99.90;;;;;;4859194;29;20509;-53
2022/10/28 08:02:17;;;;;;;;;;;13.50;99.90;;;;;;4860127;29;20088;-53
2022/10/28 08:04:44;;;;;;;20.80;3.20;;;13.60;99.90;;;;;;4861539;29;19955;-54
2022/10/28 08:07:12;;;;;;;7.38;2.10;;;13.60;99.90;;;;;;4858212;29;20061;-57
2022/10/28 08:09:39;;;;;;;4.85;2.10;;;13.70;99.90;;;;;;4859224;29;20140;-56
2022/10/28 08:12:07;;;;;;;8.52;2.08;;;13.70;99.90;;;;;;4855619;29;20564;-56
2022/10/28 08:14:34;;;;;;;5.10;2.15;;;13.70;99.90;;;;;;4859546;29;20076;-53
2022/10/28 08:17:01;;;;;;;8.55;2.47;;;13.80;99.90;;;;;;4856537;29;20263;-54
2022/10/28 08:19:28;;;;;;;5.15;2.20;;;13.80;99.90;;;;;;4862684;29;20061;-55
2022/10/28 08:21:55;;;;;;;19.85;2.90;;;13.80;99.90;;;;;;4866695;29;20056;-55
2022/10/28 08:24:22;;;;;;;14.95;3.13;;;13.90;99.90;;;;;;4858106;29;20450;-53
2022/10/28 08:26:49;;;;;;;11.73;2.17;;;13.90;99.90;;;;;;4858772;29;20061;-55
2022/10/28 08:29:16;;;;;;;5.75;1.88;;;14.00;99.90;;;;;;4836258;29;20048;-54
2022/10/28 08:31:42;;;;;;;;;;;13.90;99.90;;;;;;4858042;29;20052;-56
2022/10/28 08:34:09;;;;;;;9.57;2.45;;;14.10;99.90;;;;;;4862532;29;19928;-56
2022/10/28 08:36:36;;;;;;;;;;;14.10;99.90;;;;;;4862140;29;20140;-56
2022/10/28 08:39:02;;;;;;;5.10;2.10;;;14.20;99.90;;;;;;4854594;29;19934;-59
2022/10/28 08:41:36;;;;;;;;;;;14.40;99.90;;;;;;4859489;29;20059;-53
2022/10/28 08:44:08;;;;;;;8.52;2.15;;;14.50;99.90;;;;;;4854963;29;19954;-53
2022/10/28 08:46:41;;;;;;;6.15;1.77;;;14.60;99.90;;;;;;4857402;29;20063;-53
2022/10/28 08:49:14;;;;;;;8.88;2.00;;;14.70;99.90;;;;;;4852789;29;20049;-56
2022/10/28 08:51:51;;;;;;;13.48;2.67;;;14.90;99.90;;;;;;4859193;29;20140;-54
2022/10/28 08:54:33;;;;;;;6.20;2.10;;;15.10;99.90;;;;;;4858023;29;20060;-55
2022/10/28 08:57:03;;;;;;;7.82;1.67;;;15.20;99.90;;;;;;4851584;29;20108;-55
2022/10/28 08:59:39;;;;;;;3.58;1.42;;;15.30;99.90;;;;;;4855464;29;20122;-55
2022/10/28 09:02:27;;;;;;;7.32;2.25;;;15.50;99.90;;;;;;4856774;29;20049;-55
2022/10/28 09:05:06;;;;;;;8.82;1.83;;;15.70;99.90;;;;;;4854446;29;20132;-56
2022/10/28 09:07:35;;;;;;;8.48;2.35;;;15.90;99.90;;;;;;4857488;29;20044;-56
2022/10/28 09:10:04;;;;;;;5.32;2.15;;;16.10;99.90;;;;;;4849228;29;20112;-57
2022/10/28 09:13:00;;;;;;;5.97;2.13;;;16.20;99.90;;;;;;4854144;29;20144;-56
2022/10/28 09:15:41;;;;;;;14.48;3.38;;;16.40;99.90;;;;;;4855291;29;20465;-58
2022/10/28 09:18:18;;;;;;;7.20;1.90;;;16.50;99.90;;;;;;4853864;29;20459;-56
2022/10/28 09:20:52;;;;;;;;;;;16.60;99.90;;;;;;4854271;29;20060;-56
2022/10/28 09:23:32;;;;;;;10.38;2.60;;;16.70;99.90;;;;;;4854934;29;19934;-57
2022/10/28 09:26:05;;;;;;;6.30;2.13;;;16.80;99.90;;;;;;4854107;29;20812;-55
2022/10/28 09:28:42;;;;;;;15.35;3.58;;;16.90;99.90;;;;;;4851879;29;20347;-54
2022/10/28 09:31:24;;;;;;;8.25;3.45;;;16.90;99.90;;;;;;4854152;29;20496;-57
2022/10/28 09:34:07;;;;;;;9.77;2.95;;;16.90;99.90;;;;;;4853587;29;20052;-58
2022/10/28 09:36:41;;;;;;;18.13;2.97;;;16.90;99.90;;;;;;4853541;29;20064;-56
2022/10/28 09:39:17;;;;;;;12.90;2.40;;;17.00;99.90;;;;;;4854704;29;20574;-58
2022/10/28 09:41:46;;;;;;;7.35;2.97;;;17.00;99.90;;;;;;4852141;29;20119;-55
2022/10/28 09:44:38;;;;;;;13.18;3.47;;;17.10;99.90;;;;;;4857961;29;20036;-55
2022/10/28 09:47:31;;;;;;;10.02;3.17;;;17.20;99.90;;;;;;4847126;29;20508;-54
2022/10/28 09:50:02;;;;;;;10.13;3.65;;;17.40;99.90;;;;;;4834422;29;20053;-58
2022/10/28 09:52:58;;;;;;;14.23;6.45;;;17.70;99.90;;;;;;4852759;29;20149;-55
2022/10/28 09:55:25;;;;;;;14.02;3.42;;;18.10;99.90;;;;;;4862766;29;20057;-55
2022/10/28 09:57:52;;;;;;;12.35;4.00;;;18.40;99.90;;;;;;4853187;29;20075;-56
2022/10/28 10:00:19;;;;;;;12.40;4.88;;;18.70;99.90;;;;;;4855187;29;20037;-56
2022/10/28 10:02:46;;;;;;;14.52;4.82;;;18.90;99.90;;;;;;4853992;29;20080;-57
2022/10/28 10:05:15;;;;;;;13.95;5.20;;;19.00;99.90;;;;;;4852308;29;20049;-55
2022/10/28 10:07:55;;;;;;;9.35;4.95;;;19.20;99.90;;;;;;4852888;29;20503;-56
2022/10/28 10:10:25;;;;;;;8.65;5.55;;;19.40;99.90;;;;;;4851550;29;20136;-56
2022/10/28 10:12:57;;;;;;;25.80;6.50;;;19.60;99.90;;;;;;4852997;29;20049;-53
2022/10/28 10:15:32;;;;;;;23.15;7.25;;;20.00;99.90;;;;;;4853420;29;20078;-57
2022/10/28 10:18:01;;;;;;;18.48;5.70;;;20.40;99.90;;;;;;4851570;29;20155;-56
2022/10/28 10:20:43;;;;;;;13.32;5.47;;;20.80;99.90;;;;;;4858436;29;20174;-55
2022/10/28 10:23:27;;;;;;;16.55;4.60;;;21.10;99.90;;;;;;4852488;29;20057;-56
2022/10/28 10:26:08;;;;;;;16.67;3.90;;;21.50;99.90;;;;;;4851413;29;20041;-57
2022/10/28 10:28:47;;;;;;;29.85;4.63;;;21.90;99.90;;;;;;4857508;29;20105;-57
2022/10/28 10:31:21;;;;;;;16.63;4.38;;;22.40;95.80;;;;;;4859578;29;20048;-56
2022/10/28 10:33:54;;;;;;;14.18;3.75;;;22.80;95.00;;;;;;4856663;29;20051;-56
2022/10/28 10:36:27;;;;;;;15.25;4.13;;;23.20;93.30;;;;;;4854020;29;20303;-55
2022/10/28 10:38:56;;;;;;;15.27;4.30;;;23.50;91.20;;;;;;4853998;29;20048;-58
2022/10/28 10:41:55;;;;;;;10.38;4.32;;;23.70;89.40;;;;;;4852994;29;20045;-58
2022/10/28 10:44:21;;;;;;;18.02;5.50;;;23.80;87.20;;;;;;4846290;29;20097;-53
2022/10/28 10:47:01;;;;;;;9.43;4.28;;;23.70;89.10;;;;;;4853671;29;20048;-57
2022/10/28 10:49:33;;;;;;;9.00;3.92;;;23.60;90.10;;;;;;4854078;29;20243;-55
2022/10/28 10:52:06;;;;;;;13.63;4.65;;;23.60;91.50;;;;;;4855375;29;20428;-55
2022/10/28 10:54:36;;;;;;;14.57;4.90;;;23.70;90.00;;;;;;4860443;29;20438;-55
2022/10/28 10:57:18;;;;;;;11.95;4.15;;;23.90;89.30;;;;;;4853124;29;20053;-54
2022/10/28 10:59:47;;;;;;;13.88;4.93;;;24.20;85.00;;;;;;4853849;29;20036;-54
2022/10/28 11:02:28;;;;;;;13.95;5.10;;;24.30;79.10;;;;;;4855379;29;20042;-53
2022/10/28 11:05:05;;;;;;;12.35;3.80;;;24.60;77.20;;;;;;4857512;29;20152;-55
2022/10/28 11:07:32;;;;;;;9.13;4.07;;;24.70;76.50;;;;;;4861231;29;20072;-57
2022/10/28 11:09:59;;;;;;;21.13;4.65;;;24.90;76.90;;;;;;4859112;29;20488;-57
2022/10/28 11:12:34;;;;;;;13.27;4.22;;;25.20;76.00;;;;;;4859739;29;20052;-54
2022/10/28 11:15:03;;;;;;;11.80;3.47;;;25.50;72.40;;;;;;4858318;29;20112;-54
2022/10/28 11:17:32;;;;;;;11.18;3.80;;;25.80;69.20;;;;;;4860198;29;20071;-53
2022/10/28 11:20:26;;;;;;;7.20;3.60;;;25.90;65.70;;;;;;4859512;29;20599;-57
2022/10/28 11:23:14;;;;;;;16.55;4.85;;;25.80;65.80;;;;;;4858434;29;20268;-55
2022/10/28 11:25:44;;;;;;;10.93;3.08;;;25.70;64.50;;;;;;4854065;29;20109;-55
2022/10/28 11:28:43;;;;;;;13.60;3.78;;;25.80;67.20;;;;;;4862370;29;20075;-56
2022/10/28 11:31:37;;;;;;;15.50;4.75;;;25.80;66.60;;;;;;4847442;29;20075;-54
2022/10/28 11:34:41;;;;;;;16.52;4.38;;;25.90;68.20;;;;;;4858707;29;20508;-55
2022/10/28 11:37:33;;;;;;;13.13;4.13;;;25.90;64.10;;;;;;4855224;29;20045;-57
2022/10/28 11:40:06;;;;;;;9.30;3.33;;;25.90;66.10;;;;;;4857398;29;20049;-54
2022/10/28 11:43:00;;;;;;;11.77;4.32;;;26.00;66.00;;;;;;4852634;29;20046;-55
2022/10/28 11:45:33;;;;;;;9.75;4.68;;;26.00;65.70;;;;;;4854724;29;20670;-54
2022/10/28 11:48:16;;;;;;;12.57;4.45;;;26.00;65.80;;;;;;4856999;29;20042;-57
2022/10/28 11:51:13;;;;;;;17.25;5.43;;;26.00;65.00;;;;;;4856163;29;20079;-54
2022/10/28 11:53:42;;;;;;;22.13;4.78;;;26.10;63.70;;;;;;4858007;29;20057;-54
2022/10/28 11:56:24;;;;;;;13.80;4.72;;;26.20;64.20;;;;;;4855454;29;20458;-55
2022/10/28 11:59:14;;;;;;;17.38;4.13;;;26.40;63.00;;;;;;4850959;29;20132;-54
2022/10/28 12:01:56;;;;;;;14.50;4.00;;;26.40;62.50;;;;;;4856749;29;20666;-56
2022/10/28 12:04:26;;;;;;;13.45;4.80;;;26.50;63.00;;;;;;4858934;29;20274;-54
2022/10/28 12:07:25;;;;;;;18.95;4.53;;;26.60;61.50;;;;;;4855335;29;20045;-56
2022/10/28 12:09:59;;;;;;;11.32;4.72;;;26.60;61.40;;;;;;4827647;29;20157;-55
2022/10/28 12:12:39;;;;;;;15.00;4.35;;;26.70;61.50;;;;;;4848684;29;20050;-53
2022/10/28 12:15:25;;;;;;;16.20;4.32;;;26.70;60.80;;;;;;4856199;29;20128;-56
2022/10/28 12:18:17;;;;;;;17.52;5.00;;;26.90;59.70;;;;;;4859436;29;20045;-55
2022/10/28 12:21:26;;;;;;;14.02;4.05;;;26.90;61.20;;;;;;4858187;29;20041;-55
2022/10/28 12:23:56;;;;;;;11.15;3.55;;;26.90;60.90;;;;;;4853186;29;20045;-57
2022/10/28 12:26:36;;;;;;;16.23;4.53;;;27.00;59.80;;;;;;4856779;29;20051;-53
2022/10/28 12:29:15;;;;;;;10.27;3.40;;;27.00;55.70;;;;;;4854748;29;20136;-56
2022/10/28 12:31:46;;;;;;;9.40;4.07;;;26.80;54.00;;;;;;4854347;29;20053;-55
2022/10/28 12:34:17;;;;;;;13.10;3.08;;;26.60;53.90;;;;;;4860096;29;20149;-52
2022/10/28 12:36:58;;;;;;;7.22;3.72;;;26.50;56.50;;;;;;4856378;29;20582;-54
2022/10/28 12:39:36;;;;;;;12.73;3.42;;;26.40;58.30;;;;;;4853059;29;20041;-49
2022/10/28 12:42:11;;;;;;;10.48;3.15;;;26.40;57.60;;;;;;4851163;29;20073;-54
2022/10/28 12:44:39;;;;;;;9.35;3.63;;;26.50;57.10;;;;;;4853819;29;20049;-52
2022/10/28 12:47:20;;;;;;;9.10;3.47;;;26.60;57.80;;;;;;4831550;29;20045;-57
2022/10/28 12:50:00;;;;;;;10.65;3.78;;;26.70;55.80;;;;;;4856650;29;20052;-57
2022/10/28 12:52:43;;;;;;;11.25;3.90;;;26.90;56.60;;;;;;4851935;29;20052;-57
2022/10/28 12:55:13;;;;;;;15.40;3.70;;;27.00;56.60;;;;;;4852821;29;20442;-54
2022/10/28 12:58:13;;;;;;;7.03;3.05;;;27.10;57.70;;;;;;4854383;29;20248;-56
2022/10/28 13:00:45;;;;;;;10.32;4.20;;;27.20;55.80;;;;;;4854354;29;20057;-57
2022/10/28 13:03:14;;;;;;;11.75;4.35;;;27.30;55.60;;;;;;4855873;29;20133;-57
2022/10/28 13:05:51;;;;;;;8.25;3.80;;;27.10;56.10;;;;;;4853313;29;20048;-56
2022/10/28 13:08:54;;;;;;;13.30;4.13;;;26.90;56.70;;;;;;4848832;29;20116;-54
2022/10/28 13:11:48;;;;;;;12.25;3.20;;;26.50;59.40;;;;;;4855723;29;20065;-53
2022/10/28 13:14:51;;;;;;;4.03;2.55;;;26.20;62.80;;;;;;4855699;29;20059;-58
2022/10/28 13:17:42;;;;;;;7.07;3.13;;;25.80;63.60;;;;;;4857096;29;20156;-56